KFSM/FSM METAR and TAF weather

Enter ICAO airport designator
Station Type Date Time Source
KFSM METAR 2021/03/02 15:53 UTC NOAA

KFSM 021553Z 00000KT 10SM FEW110 09/02 A3034 RMK AO2 SLP275 T00890017


Station Type Date Time Source
KFSM Decoded METAR 2021/03/02 15:53 UTC NOAA

FORT SMITH REGIONAL AIRPORT, AR, United States (KFSM) 35-20N 94-22W 140M
Mar 02, 2021 - 10:53 AM EST / 2021.03.02 1553 UTC
Wind: Calm:0
Visibility: 10 mile(s):0
Sky conditions: mostly clear
Temperature: 48.0 F (8.9 C)
Dew Point: 35.1 F (1.7 C)
Relative Humidity: 60%
Pressure (altimeter): 30.34 in. Hg (1027 hPa)
ob: KFSM 021553Z 00000KT 10SM FEW110 09/02 A3034 RMK AO2 SLP275 T00890017
cycle: 16

Station Type Date Time Source
KFSM TAF 2021/03/02 12:22 UTC NOAA

TAF KFSM 021120Z 0212/0312 07005KT P6SM BKN080
FM021600 21006KT P6SM BKN250
FM030100 VRB02KT P6SM SKC

Example: see airport list